sensor_id;sensor_type;location;lat;lon;timestamp;P1;durP1;ratioP1;P2;durP2;ratioP2
25509;SDS011;13413;52.336;21.200;2023-03-01T00:01:45;113.60;;;58.60;;
25509;SDS011;13413;52.336;21.200;2023-03-01T00:04:39;111.00;;;58.60;;
25509;SDS011;13413;52.336;21.200;2023-03-01T00:07:33;87.70;;;45.10;;
25509;SDS011;13413;52.336;21.200;2023-03-01T00:10:27;105.50;;;55.60;;
25509;SDS011;13413;52.336;21.200;2023-03-01T00:13:21;108.30;;;55.30;;
25509;SDS011;13413;52.336;21.200;2023-03-01T00:16:22;109.50;;;56.70;;
25509;SDS011;13413;52.336;21.200;2023-03-01T00:19:19;112.90;;;58.30;;
25509;SDS011;13413;52.336;21.200;2023-03-01T00:22:20;107.40;;;56.00;;
25509;SDS011;13413;52.336;21.200;2023-03-01T00:25:14;105.80;;;55.10;;
25509;SDS011;13413;52.336;21.200;2023-03-01T00:28:15;107.40;;;57.00;;
25509;SDS011;13413;52.336;21.200;2023-03-01T00:31:10;106.40;;;55.60;;
25509;SDS011;13413;52.336;21.200;2023-03-01T00:34:06;105.70;;;55.90;;
25509;SDS011;13413;52.336;21.200;2023-03-01T00:39:53;103.60;;;49.80;;
25509;SDS011;13413;52.336;21.200;2023-03-01T00:42:47;99.30;;;50.40;;
25509;SDS011;13413;52.336;21.200;2023-03-01T00:45:41;67.10;;;35.50;;
25509;SDS011;13413;52.336;21.200;2023-03-01T00:48:35;97.80;;;51.60;;
25509;SDS011;13413;52.336;21.200;2023-03-01T00:51:30;97.70;;;52.00;;
25509;SDS011;13413;52.336;21.200;2023-03-01T00:54:25;102.30;;;52.60;;
25509;SDS011;13413;52.336;21.200;2023-03-01T00:59:06;105.00;;;54.40;;
25509;SDS011;13413;52.336;21.200;2023-03-01T01:01:58;95.80;;;51.80;;
25509;SDS011;13413;52.336;21.200;2023-03-01T01:04:51;94.10;;;47.90;;
25509;SDS011;13413;52.336;21.200;2023-03-01T01:07:44;87.40;;;46.60;;
25509;SDS011;13413;52.336;21.200;2023-03-01T01:16:43;87.10;;;48.40;;
25509;SDS011;13413;52.336;21.200;2023-03-01T01:19:36;83.70;;;43.30;;
25509;SDS011;13413;52.336;21.200;2023-03-01T01:22:35;82.00;;;43.70;;
25509;SDS011;13413;52.336;21.200;2023-03-01T01:25:28;75.70;;;41.90;;
25509;SDS011;13413;52.336;21.200;2023-03-01T01:28:21;75.50;;;41.20;;
25509;SDS011;13413;52.336;21.200;2023-03-01T01:31:15;76.50;;;42.30;;
25509;SDS011;13413;52.336;21.200;2023-03-01T01:34:12;74.10;;;41.10;;
25509;SDS011;13413;52.336;21.200;2023-03-01T01:37:06;81.90;;;42.60;;
25509;SDS011;13413;52.336;21.200;2023-03-01T01:40:00;82.70;;;42.80;;
25509;SDS011;13413;52.336;21.200;2023-03-01T01:43:01;79.30;;;42.40;;
25509;SDS011;13413;52.336;21.200;2023-03-01T01:45:53;80.70;;;42.10;;
25509;SDS011;13413;52.336;21.200;2023-03-01T01:51:51;79.10;;;40.00;;
25509;SDS011;13413;52.336;21.200;2023-03-01T01:54:53;71.90;;;40.10;;
25509;SDS011;13413;52.336;21.200;2023-03-01T01:57:49;77.40;;;41.10;;
25509;SDS011;13413;52.336;21.200;2023-03-01T02:00:45;76.10;;;40.60;;
25509;SDS011;13413;52.336;21.200;2023-03-01T02:03:40;78.10;;;41.30;;
25509;SDS011;13413;52.336;21.200;2023-03-01T02:08:48;78.00;;;41.00;;
25509;SDS011;13413;52.336;21.200;2023-03-01T02:11:44;81.00;;;43.60;;
25509;SDS011;13413;52.336;21.200;2023-03-01T02:14:38;77.30;;;42.20;;
25509;SDS011;13413;52.336;21.200;2023-03-01T02:17:38;77.80;;;42.30;;
25509;SDS011;13413;52.336;21.200;2023-03-01T02:20:43;96.30;;;49.50;;
25509;SDS011;13413;52.336;21.200;2023-03-01T02:23:48;80.40;;;43.70;;
25509;SDS011;13413;52.336;21.200;2023-03-01T02:26:42;80.00;;;42.50;;
25509;SDS011;13413;52.336;21.200;2023-03-01T02:29:39;77.80;;;41.60;;
25509;SDS011;13413;52.336;21.200;2023-03-01T02:32:40;82.60;;;43.60;;
25509;SDS011;13413;52.336;21.200;2023-03-01T02:35:34;73.60;;;41.60;;
25509;SDS011;13413;52.336;21.200;2023-03-01T02:38:30;89.00;;;44.10;;
25509;SDS011;13413;52.336;21.200;2023-03-01T02:41:30;74.50;;;41.00;;
25509;SDS011;13413;52.336;21.200;2023-03-01T02:44:27;84.10;;;41.40;;
25509;SDS011;13413;52.336;21.200;2023-03-01T02:47:27;72.40;;;38.70;;
25509;SDS011;13413;52.336;21.200;2023-03-01T02:50:25;75.70;;;40.60;;
25509;SDS011;13413;52.336;21.200;2023-03-01T02:53:39;76.10;;;40.70;;
25509;SDS011;13413;52.336;21.200;2023-03-01T02:56:39;75.90;;;38.80;;
25509;SDS011;13413;52.336;21.200;2023-03-01T02:59:35;69.70;;;40.60;;
25509;SDS011;13413;52.336;21.200;2023-03-01T03:02:29;69.70;;;39.60;;
25509;SDS011;13413;52.336;21.200;2023-03-01T03:05:23;81.10;;;41.90;;
25509;SDS011;13413;52.336;21.200;2023-03-01T03:08:25;72.90;;;37.90;;
25509;SDS011;13413;52.336;21.200;2023-03-01T03:13:59;82.80;;;42.50;;
25509;SDS011;13413;52.336;21.200;2023-03-01T03:16:53;83.90;;;42.80;;
25509;SDS011;13413;52.336;21.200;2023-03-01T03:19:46;80.90;;;41.40;;
25509;SDS011;13413;52.336;21.200;2023-03-01T03:22:41;88.00;;;40.80;;
25509;SDS011;13413;52.336;21.200;2023-03-01T03:32:47;92.70;;;45.50;;
25509;SDS011;13413;52.336;21.200;2023-03-01T03:35:41;108.00;;;50.60;;
25509;SDS011;13413;52.336;21.200;2023-03-01T03:38:36;94.80;;;47.10;;
25509;SDS011;13413;52.336;21.200;2023-03-01T03:42:48;97.90;;;50.20;;
25509;SDS011;13413;52.336;21.200;2023-03-01T03:45:40;84.30;;;43.80;;
25509;SDS011;13413;52.336;21.200;2023-03-01T03:48:42;77.00;;;39.40;;
25509;SDS011;13413;52.336;21.200;2023-03-01T03:51:44;73.60;;;38.90;;
25509;SDS011;13413;52.336;21.200;2023-03-01T03:57:27;82.80;;;41.90;;
25509;SDS011;13413;52.336;21.200;2023-03-01T04:00:20;80.90;;;42.70;;
25509;SDS011;13413;52.336;21.200;2023-03-01T04:03:15;80.10;;;43.50;;
25509;SDS011;13413;52.336;21.200;2023-03-01T04:06:08;77.30;;;41.10;;
25509;SDS011;13413;52.336;21.200;2023-03-01T04:09:08;81.00;;;42.10;;
25509;SDS011;13413;52.336;21.200;2023-03-01T04:12:01;71.90;;;40.60;;
25509;SDS011;13413;52.336;21.200;2023-03-01T04:14:54;89.80;;;47.20;;
25509;SDS011;13413;52.336;21.200;2023-03-01T04:23:11;76.20;;;41.00;;
25509;SDS011;13413;52.336;21.200;2023-03-01T04:26:08;78.90;;;41.40;;
25509;SDS011;13413;52.336;21.200;2023-03-01T04:29:09;78.80;;;39.90;;
25509;SDS011;13413;52.336;21.200;2023-03-01T04:32:03;74.50;;;40.00;;
25509;SDS011;13413;52.336;21.200;2023-03-01T04:34:56;88.60;;;43.40;;
25509;SDS011;13413;52.336;21.200;2023-03-01T04:37:58;85.50;;;41.60;;
25509;SDS011;13413;52.336;21.200;2023-03-01T04:40:52;79.70;;;41.80;;
25509;SDS011;13413;52.336;21.200;2023-03-01T04:47:58;89.30;;;41.90;;
25509;SDS011;13413;52.336;21.200;2023-03-01T04:50:52;87.50;;;41.80;;
25509;SDS011;13413;52.336;21.200;2023-03-01T04:53:52;75.30;;;40.10;;
25509;SDS011;13413;52.336;21.200;2023-03-01T04:56:53;83.90;;;40.30;;
25509;SDS011;13413;52.336;21.200;2023-03-01T04:59:48;75.20;;;38.80;;
25509;SDS011;13413;52.336;21.200;2023-03-01T05:02:49;82.30;;;41.90;;
25509;SDS011;13413;52.336;21.200;2023-03-01T05:05:46;82.10;;;41.50;;
25509;SDS011;13413;52.336;21.200;2023-03-01T05:08:47;82.80;;;41.70;;
25509;SDS011;13413;52.336;21.200;2023-03-01T05:11:48;72.30;;;38.30;;
25509;SDS011;13413;52.336;21.200;2023-03-01T05:14:42;60.30;;;30.10;;
25509;SDS011;13413;52.336;21.200;2023-03-01T05:17:36;78.00;;;42.80;;
25509;SDS011;13413;52.336;21.200;2023-03-01T05:20:30;85.30;;;41.50;;
25509;SDS011;13413;52.336;21.200;2023-03-01T05:23:31;75.90;;;38.80;;
25509;SDS011;13413;52.336;21.200;2023-03-01T05:26:39;81.50;;;43.50;;
25509;SDS011;13413;52.336;21.200;2023-03-01T05:32:36;85.20;;;41.60;;
25509;SDS011;13413;52.336;21.200;2023-03-01T05:35:32;90.10;;;45.20;;
25509;SDS011;13413;52.336;21.200;2023-03-01T05:43:49;59.40;;;31.40;;
25509;SDS011;13413;52.336;21.200;2023-03-01T05:46:43;81.80;;;42.20;;
25509;SDS011;13413;52.336;21.200;2023-03-01T05:55:50;90.90;;;45.10;;
25509;SDS011;13413;52.336;21.200;2023-03-01T05:58:51;82.40;;;42.60;;
25509;SDS011;13413;52.336;21.200;2023-03-01T06:01:52;83.90;;;42.70;;
25509;SDS011;13413;52.336;21.200;2023-03-01T06:04:45;73.90;;;42.00;;
25509;SDS011;13413;52.336;21.200;2023-03-01T06:07:47;85.70;;;44.60;;
25509;SDS011;13413;52.336;21.200;2023-03-01T06:10:43;89.30;;;43.40;;
25509;SDS011;13413;52.336;21.200;2023-03-01T06:13:37;84.70;;;44.90;;
25509;SDS011;13413;52.336;21.200;2023-03-01T06:16:33;103.90;;;51.20;;
25509;SDS011;13413;52.336;21.200;2023-03-01T06:19:27;188.50;;;81.20;;
25509;SDS011;13413;52.336;21.200;2023-03-01T06:22:28;151.20;;;69.00;;
25509;SDS011;13413;52.336;21.200;2023-03-01T06:25:22;117.90;;;54.70;;
25509;SDS011;13413;52.336;21.200;2023-03-01T06:28:24;100.30;;;48.80;;
25509;SDS011;13413;52.336;21.200;2023-03-01T06:31:18;95.40;;;47.20;;
25509;SDS011;13413;52.336;21.200;2023-03-01T06:34:12;86.20;;;47.30;;
25509;SDS011;13413;52.336;21.200;2023-03-01T06:43:04;104.60;;;51.80;;
25509;SDS011;13413;52.336;21.200;2023-03-01T06:45:57;101.00;;;45.40;;
25509;SDS011;13413;52.336;21.200;2023-03-01T06:48:50;83.40;;;44.90;;
25509;SDS011;13413;52.336;21.200;2023-03-01T06:51:43;89.70;;;45.40;;
25509;SDS011;13413;52.336;21.200;2023-03-01T06:54:36;104.60;;;45.80;;
25509;SDS011;13413;52.336;21.200;2023-03-01T06:57:36;95.20;;;46.60;;
25509;SDS011;13413;52.336;21.200;2023-03-01T07:00:29;91.10;;;45.70;;
25509;SDS011;13413;52.336;21.200;2023-03-01T07:03:29;90.90;;;45.40;;
25509;SDS011;13413;52.336;21.200;2023-03-01T07:06:28;98.00;;;43.90;;
25509;SDS011;13413;52.336;21.200;2023-03-01T07:09:21;92.60;;;45.20;;
25509;SDS011;13413;52.336;21.200;2023-03-01T07:12:21;84.80;;;43.90;;
25509;SDS011;13413;52.336;21.200;2023-03-01T07:15:14;88.00;;;44.10;;
25509;SDS011;13413;52.336;21.200;2023-03-01T07:18:14;91.20;;;44.60;;
25509;SDS011;13413;52.336;21.200;2023-03-01T07:21:07;87.90;;;45.80;;
25509;SDS011;13413;52.336;21.200;2023-03-01T07:24:19;94.70;;;46.60;;
25509;SDS011;13413;52.336;21.200;2023-03-01T07:27:12;94.60;;;46.50;;
25509;SDS011;13413;52.336;21.200;2023-03-01T07:30:08;78.60;;;41.40;;
25509;SDS011;13413;52.336;21.200;2023-03-01T07:33:09;76.90;;;41.40;;
25509;SDS011;13413;52.336;21.200;2023-03-01T07:36:04;74.10;;;42.30;;
25509;SDS011;13413;52.336;21.200;2023-03-01T07:38:59;77.30;;;38.50;;
25509;SDS011;13413;52.336;21.200;2023-03-01T07:42:00;79.80;;;39.70;;
25509;SDS011;13413;52.336;21.200;2023-03-01T07:44:54;89.30;;;43.00;;
25509;SDS011;13413;52.336;21.200;2023-03-01T07:49:16;83.70;;;41.50;;
25509;SDS011;13413;52.336;21.200;2023-03-01T07:52:10;80.30;;;42.60;;
25509;SDS011;13413;52.336;21.200;2023-03-01T07:55:06;79.60;;;40.40;;
25509;SDS011;13413;52.336;21.200;2023-03-01T07:58:01;84.10;;;41.20;;
25509;SDS011;13413;52.336;21.200;2023-03-01T08:00:55;73.80;;;39.00;;
25509;SDS011;13413;52.336;21.200;2023-03-01T08:03:53;86.50;;;45.20;;
25509;SDS011;13413;52.336;21.200;2023-03-01T08:06:54;78.30;;;42.10;;
25509;SDS011;13413;52.336;21.200;2023-03-01T08:09:48;69.70;;;38.90;;
25509;SDS011;13413;52.336;21.200;2023-03-01T08:12:42;65.90;;;35.90;;
25509;SDS011;13413;52.336;21.200;2023-03-01T08:15:36;76.40;;;38.90;;
25509;SDS011;13413;52.336;21.200;2023-03-01T08:18:37;69.90;;;37.50;;
25509;SDS011;13413;52.336;21.200;2023-03-01T08:21:31;77.80;;;36.50;;
25509;SDS011;13413;52.336;21.200;2023-03-01T08:24:35;69.00;;;35.50;;
25509;SDS011;13413;52.336;21.200;2023-03-01T08:27:29;64.70;;;34.70;;
25509;SDS011;13413;52.336;21.200;2023-03-01T08:30:30;60.80;;;33.90;;
25509;SDS011;13413;52.336;21.200;2023-03-01T08:33:30;60.40;;;31.50;;
25509;SDS011;13413;52.336;21.200;2023-03-01T08:36:25;44.80;;;22.80;;
25509;SDS011;13413;52.336;21.200;2023-03-01T08:39:20;58.00;;;31.70;;
25509;SDS011;13413;52.336;21.200;2023-03-01T08:42:14;60.80;;;34.50;;
25509;SDS011;13413;52.336;21.200;2023-03-01T08:45:12;60.60;;;31.30;;
25509;SDS011;13413;52.336;21.200;2023-03-01T08:48:55;68.20;;;35.30;;
25509;SDS011;13413;52.336;21.200;2023-03-01T08:51:48;60.30;;;31.30;;
25509;SDS011;13413;52.336;21.200;2023-03-01T08:54:42;61.40;;;33.20;;
25509;SDS011;13413;52.336;21.200;2023-03-01T08:57:42;69.40;;;36.90;;
25509;SDS011;13413;52.336;21.200;2023-03-01T09:04:24;57.50;;;31.70;;
25509;SDS011;13413;52.336;21.200;2023-03-01T09:07:16;62.50;;;29.50;;
25509;SDS011;13413;52.336;21.200;2023-03-01T09:10:10;57.40;;;33.50;;
25509;SDS011;13413;52.336;21.200;2023-03-01T09:13:18;58.30;;;32.50;;
25509;SDS011;13413;52.336;21.200;2023-03-01T09:16:11;68.30;;;36.40;;
25509;SDS011;13413;52.336;21.200;2023-03-01T09:19:18;53.40;;;30.70;;
25509;SDS011;13413;52.336;21.200;2023-03-01T09:22:17;61.70;;;32.50;;
25509;SDS011;13413;52.336;21.200;2023-03-01T09:25:10;52.10;;;31.40;;
25509;SDS011;13413;52.336;21.200;2023-03-01T09:28:10;57.70;;;28.50;;
25509;SDS011;13413;52.336;21.200;2023-03-01T09:31:03;53.80;;;29.10;;
25509;SDS011;13413;52.336;21.200;2023-03-01T09:34:03;53.50;;;27.40;;
25509;SDS011;13413;52.336;21.200;2023-03-01T09:37:03;52.00;;;27.90;;
25509;SDS011;13413;52.336;21.200;2023-03-01T09:39:55;52.40;;;26.20;;
25509;SDS011;13413;52.336;21.200;2023-03-01T09:42:50;49.70;;;26.80;;
25509;SDS011;13413;52.336;21.200;2023-03-01T09:46:02;50.90;;;26.80;;
25509;SDS011;13413;52.336;21.200;2023-03-01T09:49:05;50.30;;;26.50;;
25509;SDS011;13413;52.336;21.200;2023-03-01T09:52:06;45.80;;;26.80;;
25509;SDS011;13413;52.336;21.200;2023-03-01T09:55:11;42.10;;;26.20;;
25509;SDS011;13413;52.336;21.200;2023-03-01T09:58:14;46.70;;;25.50;;
25509;SDS011;13413;52.336;21.200;2023-03-01T10:01:29;49.00;;;25.10;;
25509;SDS011;13413;52.336;21.200;2023-03-01T10:04:34;43.50;;;24.70;;
25509;SDS011;13413;52.336;21.200;2023-03-01T10:07:44;43.70;;;24.00;;
25509;SDS011;13413;52.336;21.200;2023-03-01T10:10:46;42.70;;;24.40;;
25509;SDS011;13413;52.336;21.200;2023-03-01T10:13:50;46.80;;;27.80;;
25509;SDS011;13413;52.336;21.200;2023-03-01T10:16:57;54.40;;;30.90;;
25509;SDS011;13413;52.336;21.200;2023-03-01T10:19:53;51.90;;;26.70;;
25509;SDS011;13413;52.336;21.200;2023-03-01T10:22:50;50.50;;;26.20;;
25509;SDS011;13413;52.336;21.200;2023-03-01T10:25:47;48.20;;;26.80;;
25509;SDS011;13413;52.336;21.200;2023-03-01T10:28:57;46.60;;;27.30;;
25509;SDS011;13413;52.336;21.200;2023-03-01T10:32:03;48.60;;;25.20;;
25509;SDS011;13413;52.336;21.200;2023-03-01T10:39:02;42.80;;;24.30;;
25509;SDS011;13413;52.336;21.200;2023-03-01T10:42:16;43.90;;;24.40;;
25509;SDS011;13413;52.336;21.200;2023-03-01T10:45:16;42.60;;;23.20;;
25509;SDS011;13413;52.336;21.200;2023-03-01T10:48:28;43.10;;;24.60;;
25509;SDS011;13413;52.336;21.200;2023-03-01T10:54:25;40.40;;;22.50;;
25509;SDS011;13413;52.336;21.200;2023-03-01T10:57:30;35.30;;;21.80;;
25509;SDS011;13413;52.336;21.200;2023-03-01T11:00:27;41.70;;;22.40;;
25509;SDS011;13413;52.336;21.200;2023-03-01T11:03:28;75.90;;;33.10;;
25509;SDS011;13413;52.336;21.200;2023-03-01T11:06:25;58.50;;;30.50;;
25509;SDS011;13413;52.336;21.200;2023-03-01T11:09:20;37.30;;;22.00;;
25509;SDS011;13413;52.336;21.200;2023-03-01T11:12:22;36.60;;;23.20;;
25509;SDS011;13413;52.336;21.200;2023-03-01T11:15:21;34.80;;;20.00;;
25509;SDS011;13413;52.336;21.200;2023-03-01T11:18:25;32.50;;;20.30;;
25509;SDS011;13413;52.336;21.200;2023-03-01T11:21:21;32.40;;;19.50;;
25509;SDS011;13413;52.336;21.200;2023-03-01T11:24:26;30.30;;;18.20;;
25509;SDS011;13413;52.336;21.200;2023-03-01T11:27:33;30.30;;;17.80;;
25509;SDS011;13413;52.336;21.200;2023-03-01T11:30:49;27.80;;;18.00;;
25509;SDS011;13413;52.336;21.200;2023-03-01T11:33:55;38.50;;;19.60;;
25509;SDS011;13413;52.336;21.200;2023-03-01T11:37:03;35.80;;;19.90;;
25509;SDS011;13413;52.336;21.200;2023-03-01T11:40:12;31.80;;;19.00;;
25509;SDS011;13413;52.336;21.200;2023-03-01T11:43:11;63.90;;;22.50;;
25509;SDS011;13413;52.336;21.200;2023-03-01T11:49:55;29.70;;;18.70;;
25509;SDS011;13413;52.336;21.200;2023-03-01T11:53:02;28.10;;;19.10;;
25509;SDS011;13413;52.336;21.200;2023-03-01T11:56:22;31.00;;;18.40;;
25509;SDS011;13413;52.336;21.200;2023-03-01T11:59:39;40.40;;;20.90;;
25509;SDS011;13413;52.336;21.200;2023-03-01T12:08:16;27.90;;;18.90;;
25509;SDS011;13413;52.336;21.200;2023-03-01T12:11:22;28.90;;;18.80;;
25509;SDS011;13413;52.336;21.200;2023-03-01T12:14:38;30.00;;;20.50;;
25509;SDS011;13413;52.336;21.200;2023-03-01T12:18:07;35.10;;;20.80;;
25509;SDS011;13413;52.336;21.200;2023-03-01T12:21:29;32.70;;;20.30;;
25509;SDS011;13413;52.336;21.200;2023-03-01T12:24:37;28.90;;;19.70;;
25509;SDS011;13413;52.336;21.200;2023-03-01T12:28:04;40.80;;;20.60;;
25509;SDS011;13413;52.336;21.200;2023-03-01T12:31:16;32.70;;;20.30;;
25509;SDS011;13413;52.336;21.200;2023-03-01T12:34:38;35.90;;;18.80;;
25509;SDS011;13413;52.336;21.200;2023-03-01T12:37:44;30.20;;;19.70;;
25509;SDS011;13413;52.336;21.200;2023-03-01T12:44:23;32.00;;;19.90;;
25509;SDS011;13413;52.336;21.200;2023-03-01T12:52:51;32.80;;;19.10;;
25509;SDS011;13413;52.336;21.200;2023-03-01T12:55:48;30.10;;;17.30;;
25509;SDS011;13413;52.336;21.200;2023-03-01T13:02:13;24.60;;;17.00;;
25509;SDS011;13413;52.336;21.200;2023-03-01T13:05:23;21.70;;;15.30;;
25509;SDS011;13413;52.336;21.200;2023-03-01T13:08:34;26.50;;;16.00;;
25509;SDS011;13413;52.336;21.200;2023-03-01T13:11:42;25.80;;;16.10;;
25509;SDS011;13413;52.336;21.200;2023-03-01T13:14:44;24.50;;;16.50;;
25509;SDS011;13413;52.336;21.200;2023-03-01T13:17:46;24.90;;;16.40;;
25509;SDS011;13413;52.336;21.200;2023-03-01T13:20:46;26.10;;;17.50;;
25509;SDS011;13413;52.336;21.200;2023-03-01T13:23:48;26.40;;;17.30;;
25509;SDS011;13413;52.336;21.200;2023-03-01T13:33:41;23.20;;;15.90;;
25509;SDS011;13413;52.336;21.200;2023-03-01T13:36:47;34.40;;;21.90;;
25509;SDS011;13413;52.336;21.200;2023-03-01T13:39:42;28.80;;;18.80;;
25509;SDS011;13413;52.336;21.200;2023-03-01T13:48:02;34.40;;;20.00;;
25509;SDS011;13413;52.336;21.200;2023-03-01T13:51:03;24.50;;;15.70;;
25509;SDS011;13413;52.336;21.200;2023-03-01T13:54:10;33.10;;;17.50;;
25509;SDS011;13413;52.336;21.200;2023-03-01T13:57:15;50.20;;;23.80;;
25509;SDS011;13413;52.336;21.200;2023-03-01T14:03:28;29.70;;;17.60;;
25509;SDS011;13413;52.336;21.200;2023-03-01T14:06:25;42.10;;;19.90;;
25509;SDS011;13413;52.336;21.200;2023-03-01T14:09:20;32.40;;;18.80;;
25509;SDS011;13413;52.336;21.200;2023-03-01T14:12:27;21.70;;;15.60;;
25509;SDS011;13413;52.336;21.200;2023-03-01T14:15:32;30.00;;;21.10;;
25509;SDS011;13413;52.336;21.200;2023-03-01T14:18:32;28.50;;;18.30;;
25509;SDS011;13413;52.336;21.200;2023-03-01T14:21:42;25.80;;;18.20;;
25509;SDS011;13413;52.336;21.200;2023-03-01T14:24:37;33.80;;;19.10;;
25509;SDS011;13413;52.336;21.200;2023-03-01T14:29:04;36.20;;;21.00;;
25509;SDS011;13413;52.336;21.200;2023-03-01T14:32:01;26.60;;;18.20;;
25509;SDS011;13413;52.336;21.200;2023-03-01T14:37:55;53.20;;;19.60;;
25509;SDS011;13413;52.336;21.200;2023-03-01T14:40:50;45.50;;;22.30;;
25509;SDS011;13413;52.336;21.200;2023-03-01T14:43:56;29.30;;;17.60;;
25509;SDS011;13413;52.336;21.200;2023-03-01T14:46:59;60.50;;;25.20;;
25509;SDS011;13413;52.336;21.200;2023-03-01T14:49:56;30.40;;;18.50;;
25509;SDS011;13413;52.336;21.200;2023-03-01T14:54:17;38.60;;;20.40;;
25509;SDS011;13413;52.336;21.200;2023-03-01T14:57:17;34.00;;;21.50;;
25509;SDS011;13413;52.336;21.200;2023-03-01T15:00:17;33.70;;;20.90;;
25509;SDS011;13413;52.336;21.200;2023-03-01T15:03:23;35.90;;;20.20;;
25509;SDS011;13413;52.336;21.200;2023-03-01T15:06:22;33.50;;;20.80;;
25509;SDS011;13413;52.336;21.200;2023-03-01T15:09:16;33.20;;;21.70;;
25509;SDS011;13413;52.336;21.200;2023-03-01T15:12:37;38.20;;;22.00;;
25509;SDS011;13413;52.336;21.200;2023-03-01T15:15:34;36.00;;;21.70;;
25509;SDS011;13413;52.336;21.200;2023-03-01T15:18:37;55.40;;;24.70;;
25509;SDS011;13413;52.336;21.200;2023-03-01T15:21:42;39.40;;;24.20;;
25509;SDS011;13413;52.336;21.200;2023-03-01T15:24:40;40.70;;;23.30;;
25509;SDS011;13413;52.336;21.200;2023-03-01T15:27:38;76.70;;;35.30;;
25509;SDS011;13413;52.336;21.200;2023-03-01T15:30:39;42.60;;;23.50;;
25509;SDS011;13413;52.336;21.200;2023-03-01T15:33:40;102.00;;;50.50;;
25509;SDS011;13413;52.336;21.200;2023-03-01T15:39:35;182.00;;;93.90;;
25509;SDS011;13413;52.336;21.200;2023-03-01T15:42:38;196.20;;;98.10;;
25509;SDS011;13413;52.336;21.200;2023-03-01T15:45:32;186.60;;;104.10;;
25509;SDS011;13413;52.336;21.200;2023-03-01T15:57:46;112.70;;;61.00;;
25509;SDS011;13413;52.336;21.200;2023-03-01T16:00:40;89.90;;;50.40;;
25509;SDS011;13413;52.336;21.200;2023-03-01T16:03:41;181.90;;;90.90;;
25509;SDS011;13413;52.336;21.200;2023-03-01T16:09:28;138.50;;;75.00;;
25509;SDS011;13413;52.336;21.200;2023-03-01T16:12:22;191.10;;;105.40;;
25509;SDS011;13413;52.336;21.200;2023-03-01T16:15:19;186.40;;;107.20;;
25509;SDS011;13413;52.336;21.200;2023-03-01T16:22:50;163.20;;;98.00;;
25509;SDS011;13413;52.336;21.200;2023-03-01T16:25:42;145.80;;;90.90;;
25509;SDS011;13413;52.336;21.200;2023-03-01T16:28:42;147.30;;;87.90;;
25509;SDS011;13413;52.336;21.200;2023-03-01T16:31:41;148.60;;;79.10;;
25509;SDS011;13413;52.336;21.200;2023-03-01T16:34:34;136.40;;;73.70;;
25509;SDS011;13413;52.336;21.200;2023-03-01T16:37:33;148.90;;;79.60;;
25509;SDS011;13413;52.336;21.200;2023-03-01T16:40:27;152.00;;;81.50;;
25509;SDS011;13413;52.336;21.200;2023-03-01T16:43:20;193.10;;;94.10;;
25509;SDS011;13413;52.336;21.200;2023-03-01T16:46:14;187.70;;;90.70;;
25509;SDS011;13413;52.336;21.200;2023-03-01T16:49:15;187.00;;;92.70;;
25509;SDS011;13413;52.336;21.200;2023-03-01T16:52:15;192.40;;;99.60;;
25509;SDS011;13413;52.336;21.200;2023-03-01T16:55:08;215.80;;;107.80;;
25509;SDS011;13413;52.336;21.200;2023-03-01T16:58:08;220.90;;;113.00;;
25509;SDS011;13413;52.336;21.200;2023-03-01T17:01:05;200.70;;;106.60;;
25509;SDS011;13413;52.336;21.200;2023-03-01T17:04:16;174.20;;;97.60;;
25509;SDS011;13413;52.336;21.200;2023-03-01T17:07:10;174.10;;;95.70;;
25509;SDS011;13413;52.336;21.200;2023-03-01T17:10:05;211.00;;;108.00;;
25509;SDS011;13413;52.336;21.200;2023-03-01T17:13:01;229.10;;;108.80;;
25509;SDS011;13413;52.336;21.200;2023-03-01T17:15:55;249.70;;;112.30;;
25509;SDS011;13413;52.336;21.200;2023-03-01T17:18:56;216.30;;;112.80;;
25509;SDS011;13413;52.336;21.200;2023-03-01T17:21:57;220.20;;;112.00;;
25509;SDS011;13413;52.336;21.200;2023-03-01T17:24:51;182.30;;;99.60;;
25509;SDS011;13413;52.336;21.200;2023-03-01T17:33:09;199.00;;;95.70;;
25509;SDS011;13413;52.336;21.200;2023-03-01T17:36:03;155.20;;;75.00;;
25509;SDS011;13413;52.336;21.200;2023-03-01T17:41:49;154.80;;;71.50;;
25509;SDS011;13413;52.336;21.200;2023-03-01T17:44:44;156.80;;;78.50;;
25509;SDS011;13413;52.336;21.200;2023-03-01T17:47:44;209.60;;;103.30;;
25509;SDS011;13413;52.336;21.200;2023-03-01T17:50:39;175.10;;;90.70;;
25509;SDS011;13413;52.336;21.200;2023-03-01T17:53:39;195.20;;;92.70;;
25509;SDS011;13413;52.336;21.200;2023-03-01T17:56:34;175.60;;;89.30;;
25509;SDS011;13413;52.336;21.200;2023-03-01T17:59:27;185.70;;;84.50;;
25509;SDS011;13413;52.336;21.200;2023-03-01T18:04:09;202.40;;;88.10;;
25509;SDS011;13413;52.336;21.200;2023-03-01T18:07:02;191.30;;;91.00;;
25509;SDS011;13413;52.336;21.200;2023-03-01T18:09:55;197.20;;;90.50;;
25509;SDS011;13413;52.336;21.200;2023-03-01T18:12:48;193.10;;;100.30;;
25509;SDS011;13413;52.336;21.200;2023-03-01T18:15:41;229.50;;;109.90;;
25509;SDS011;13413;52.336;21.200;2023-03-01T18:18:40;239.40;;;110.10;;
25509;SDS011;13413;52.336;21.200;2023-03-01T18:21:40;228.30;;;105.70;;
25509;SDS011;13413;52.336;21.200;2023-03-01T18:24:32;217.60;;;103.90;;
25509;SDS011;13413;52.336;21.200;2023-03-01T18:27:32;191.00;;;98.80;;
25509;SDS011;13413;52.336;21.200;2023-03-01T18:30:25;209.10;;;101.00;;
25509;SDS011;13413;52.336;21.200;2023-03-01T18:33:18;218.60;;;108.00;;
25509;SDS011;13413;52.336;21.200;2023-03-01T18:36:19;216.50;;;101.00;;
25509;SDS011;13413;52.336;21.200;2023-03-01T18:39:20;204.70;;;99.00;;
25509;SDS011;13413;52.336;21.200;2023-03-01T18:42:20;222.60;;;102.80;;
25509;SDS011;13413;52.336;21.200;2023-03-01T18:45:13;206.10;;;104.00;;
25509;SDS011;13413;52.336;21.200;2023-03-01T18:48:12;192.80;;;98.70;;
25509;SDS011;13413;52.336;21.200;2023-03-01T18:51:10;151.80;;;73.00;;
25509;SDS011;13413;52.336;21.200;2023-03-01T18:54:11;136.10;;;70.80;;
25509;SDS011;13413;52.336;21.200;2023-03-01T18:57:11;184.70;;;99.30;;
25509;SDS011;13413;52.336;21.200;2023-03-01T19:00:05;186.20;;;97.00;;
25509;SDS011;13413;52.336;21.200;2023-03-01T19:03:06;223.80;;;102.20;;
25509;SDS011;13413;52.336;21.200;2023-03-01T19:06:00;184.20;;;98.50;;
25509;SDS011;13413;52.336;21.200;2023-03-01T19:09:10;188.30;;;96.50;;
25509;SDS011;13413;52.336;21.200;2023-03-01T19:12:04;186.30;;;101.10;;
25509;SDS011;13413;52.336;21.200;2023-03-01T19:14:58;197.30;;;100.50;;
25509;SDS011;13413;52.336;21.200;2023-03-01T19:17:59;199.70;;;101.80;;
25509;SDS011;13413;52.336;21.200;2023-03-01T19:23:59;188.40;;;99.90;;
25509;SDS011;13413;52.336;21.200;2023-03-01T19:27:00;177.10;;;98.00;;
25509;SDS011;13413;52.336;21.200;2023-03-01T19:29:54;201.90;;;102.70;;
25509;SDS011;13413;52.336;21.200;2023-03-01T19:38:03;177.20;;;96.20;;